EDDG/FMO METAR and TAF weather

Enter ICAO airport designator
Station Type Date Time Source
EDDG METAR 2022/05/23 15:20 UTC NOAA

EDDG 231520Z 12008KT 050V170 CAVOK 24/13 Q0997 TEMPO 24015G25KT SHRA BKN025CB


Station Type Date Time Source
EDDG Decoded METAR 2022/05/23 15:20 UTC NOAA

Muenster / Osnabrueck, Germany (EDDG) 52-08N 007-42E 53M
May 23, 2022 - 11:20 AM EDT / 2022.05.23 1520 UTC
Wind: from the ESE (120 degrees) at 9 MPH (8 KT) (direction variable):0
Visibility: greater than 7 mile(s):0
Weather: Cumulonimbus clouds observed
Temperature: 75 F (24 C)
Dew Point: 55 F (13 C)
Relative Humidity: 50%
Pressure (altimeter): 29.44 in. Hg (0997 hPa)
ob: EDDG 231520Z 12008KT 050V170 CAVOK 24/13 Q0997 TEMPO 24015G25KT SHRA BKN025CB
cycle: 15

Station Type Date Time Source
EDDG TAF 2022/05/23 12:27 UTC NOAA

TAF EDDG 231100Z 2312/2412 12006KT CAVOK
TEMPO 2316/2322 23015G25KT SHRA BKN020CB
BECMG 2317/2319 18010KT PROB30
TEMPO 2318/2320 21020G30KT 3500 TSRA BKN015CB
BECMG 2319/2321 24011KT
BECMG 2321/2323 BKN012 PROB30
TEMPO 2323/2402 BKN008
BECMG 2403/2406 BKN020
BECMG 2407/2409 23015G25KT

Example: see airport list